sensor_id;sensor_type;location;lat;lon;timestamp;P1;durP1;ratioP1;P2;durP2;ratioP2
9420;SDS011;4749;51.398;5.466;2023-11-19T00:00:09;10.15;;;5.30;;
9420;SDS011;4749;51.398;5.466;2023-11-19T00:02:38;11.30;;;6.07;;
9420;SDS011;4749;51.398;5.466;2023-11-19T00:05:06;9.88;;;4.80;;
9420;SDS011;4749;51.398;5.466;2023-11-19T00:07:35;9.70;;;4.95;;
9420;SDS011;4749;51.398;5.466;2023-11-19T00:10:03;6.93;;;4.18;;
9420;SDS011;4749;51.398;5.466;2023-11-19T00:12:33;12.38;;;4.28;;
9420;SDS011;4749;51.398;5.466;2023-11-19T00:15:00;7.70;;;3.47;;
9420;SDS011;4749;51.398;5.466;2023-11-19T00:17:28;5.80;;;3.08;;
9420;SDS011;4749;51.398;5.466;2023-11-19T00:19:56;7.90;;;3.95;;
9420;SDS011;4749;51.398;5.466;2023-11-19T00:22:23;5.20;;;3.13;;
9420;SDS011;4749;51.398;5.466;2023-11-19T00:24:52;6.22;;;3.70;;
9420;SDS011;4749;51.398;5.466;2023-11-19T00:27:19;6.80;;;3.10;;
9420;SDS011;4749;51.398;5.466;2023-11-19T00:29:47;7.60;;;3.45;;
9420;SDS011;4749;51.398;5.466;2023-11-19T00:32:14;8.20;;;3.58;;
9420;SDS011;4749;51.398;5.466;2023-11-19T00:34:43;6.88;;;3.20;;
9420;SDS011;4749;51.398;5.466;2023-11-19T00:37:11;7.78;;;3.00;;
9420;SDS011;4749;51.398;5.466;2023-11-19T00:39:39;5.88;;;3.65;;
9420;SDS011;4749;51.398;5.466;2023-11-19T00:42:06;9.77;;;3.35;;
9420;SDS011;4749;51.398;5.466;2023-11-19T00:44:33;4.88;;;3.00;;
9420;SDS011;4749;51.398;5.466;2023-11-19T00:47:00;6.95;;;3.20;;
9420;SDS011;4749;51.398;5.466;2023-11-19T00:49:27;5.78;;;2.92;;
9420;SDS011;4749;51.398;5.466;2023-11-19T00:51:55;8.55;;;3.00;;
9420;SDS011;4749;51.398;5.466;2023-11-19T00:54:22;5.55;;;2.83;;
9420;SDS011;4749;51.398;5.466;2023-11-19T00:56:52;8.35;;;2.88;;
9420;SDS011;4749;51.398;5.466;2023-11-19T00:59:19;5.95;;;2.88;;
9420;SDS011;4749;51.398;5.466;2023-11-19T01:01:46;8.15;;;3.10;;
9420;SDS011;4749;51.398;5.466;2023-11-19T01:04:19;12.02;;;3.20;;
9420;SDS011;4749;51.398;5.466;2023-11-19T01:06:47;11.10;;;3.30;;
9420;SDS011;4749;51.398;5.466;2023-11-19T01:09:15;7.57;;;2.78;;
9420;SDS011;4749;51.398;5.466;2023-11-19T01:11:42;11.90;;;3.20;;
9420;SDS011;4749;51.398;5.466;2023-11-19T01:14:11;9.35;;;3.15;;
9420;SDS011;4749;51.398;5.466;2023-11-19T01:16:38;9.50;;;2.80;;
9420;SDS011;4749;51.398;5.466;2023-11-19T01:19:05;10.05;;;2.92;;
9420;SDS011;4749;51.398;5.466;2023-11-19T01:21:43;13.68;;;3.53;;
9420;SDS011;4749;51.398;5.466;2023-11-19T01:24:10;12.07;;;3.10;;
9420;SDS011;4749;51.398;5.466;2023-11-19T01:26:39;12.45;;;3.25;;
9420;SDS011;4749;51.398;5.466;2023-11-19T01:29:12;15.10;;;3.30;;
9420;SDS011;4749;51.398;5.466;2023-11-19T01:31:40;15.63;;;2.92;;
9420;SDS011;4749;51.398;5.466;2023-11-19T01:34:13;9.60;;;3.08;;
9420;SDS011;4749;51.398;5.466;2023-11-19T01:36:40;13.75;;;3.45;;
9420;SDS011;4749;51.398;5.466;2023-11-19T01:39:07;8.82;;;3.03;;
9420;SDS011;4749;51.398;5.466;2023-11-19T01:41:35;13.35;;;3.55;;
9420;SDS011;4749;51.398;5.466;2023-11-19T01:44:03;12.63;;;3.40;;
9420;SDS011;4749;51.398;5.466;2023-11-19T01:46:32;15.73;;;3.83;;
9420;SDS011;4749;51.398;5.466;2023-11-19T01:49:00;13.50;;;3.70;;
9420;SDS011;4749;51.398;5.466;2023-11-19T01:51:28;14.65;;;3.60;;
9420;SDS011;4749;51.398;5.466;2023-11-19T01:53:57;13.77;;;3.65;;
9420;SDS011;4749;51.398;5.466;2023-11-19T01:56:24;12.15;;;3.45;;
9420;SDS011;4749;51.398;5.466;2023-11-19T01:58:53;14.57;;;3.28;;
9420;SDS011;4749;51.398;5.466;2023-11-19T02:01:21;13.55;;;3.03;;
9420;SDS011;4749;51.398;5.466;2023-11-19T02:03:49;17.92;;;3.47;;
9420;SDS011;4749;51.398;5.466;2023-11-19T02:06:17;17.25;;;4.15;;
9420;SDS011;4749;51.398;5.466;2023-11-19T02:08:44;14.20;;;3.35;;
9420;SDS011;4749;51.398;5.466;2023-11-19T02:11:11;15.43;;;3.72;;
9420;SDS011;4749;51.398;5.466;2023-11-19T02:13:39;16.38;;;3.58;;
9420;SDS011;4749;51.398;5.466;2023-11-19T02:16:08;14.60;;;3.50;;
9420;SDS011;4749;51.398;5.466;2023-11-19T02:18:38;21.20;;;3.88;;
9420;SDS011;4749;51.398;5.466;2023-11-19T02:21:05;14.70;;;3.92;;
9420;SDS011;4749;51.398;5.466;2023-11-19T02:23:32;11.20;;;3.22;;
9420;SDS011;4749;51.398;5.466;2023-11-19T02:26:14;15.60;;;4.13;;
9420;SDS011;4749;51.398;5.466;2023-11-19T02:28:55;18.90;;;4.07;;
9420;SDS011;4749;51.398;5.466;2023-11-19T02:31:22;21.25;;;4.35;;
9420;SDS011;4749;51.398;5.466;2023-11-19T02:33:49;15.43;;;4.07;;
9420;SDS011;4749;51.398;5.466;2023-11-19T02:36:17;25.15;;;5.18;;
9420;SDS011;4749;51.398;5.466;2023-11-19T02:38:44;17.77;;;4.18;;
9420;SDS011;4749;51.398;5.466;2023-11-19T02:41:11;21.27;;;4.80;;
9420;SDS011;4749;51.398;5.466;2023-11-19T02:43:40;23.85;;;5.35;;
9420;SDS011;4749;51.398;5.466;2023-11-19T02:46:08;26.92;;;4.82;;
9420;SDS011;4749;51.398;5.466;2023-11-19T02:48:38;26.23;;;4.47;;
9420;SDS011;4749;51.398;5.466;2023-11-19T02:51:06;22.17;;;4.30;;
9420;SDS011;4749;51.398;5.466;2023-11-19T02:53:36;25.30;;;5.20;;
9420;SDS011;4749;51.398;5.466;2023-11-19T02:56:03;29.23;;;5.10;;
9420;SDS011;4749;51.398;5.466;2023-11-19T02:58:57;23.80;;;4.78;;
9420;SDS011;4749;51.398;5.466;2023-11-19T03:01:24;25.45;;;4.18;;
9420;SDS011;4749;51.398;5.466;2023-11-19T03:04:00;26.48;;;4.57;;
9420;SDS011;4749;51.398;5.466;2023-11-19T03:06:30;28.92;;;4.88;;
9420;SDS011;4749;51.398;5.466;2023-11-19T03:08:58;27.60;;;5.13;;
9420;SDS011;4749;51.398;5.466;2023-11-19T03:11:29;29.77;;;4.75;;
9420;SDS011;4749;51.398;5.466;2023-11-19T03:13:57;30.17;;;4.82;;
9420;SDS011;4749;51.398;5.466;2023-11-19T03:16:24;24.00;;;4.88;;
9420;SDS011;4749;51.398;5.466;2023-11-19T03:18:51;26.38;;;4.85;;
9420;SDS011;4749;51.398;5.466;2023-11-19T03:21:18;34.38;;;5.88;;
9420;SDS011;4749;51.398;5.466;2023-11-19T03:23:47;24.90;;;4.57;;
9420;SDS011;4749;51.398;5.466;2023-11-19T03:26:14;26.83;;;4.45;;
9420;SDS011;4749;51.398;5.466;2023-11-19T03:28:41;29.83;;;4.95;;
9420;SDS011;4749;51.398;5.466;2023-11-19T03:31:09;30.37;;;5.17;;
9420;SDS011;4749;51.398;5.466;2023-11-19T03:33:36;31.25;;;5.28;;
9420;SDS011;4749;51.398;5.466;2023-11-19T03:36:04;23.45;;;4.30;;
9420;SDS011;4749;51.398;5.466;2023-11-19T03:38:32;29.85;;;4.53;;
9420;SDS011;4749;51.398;5.466;2023-11-19T03:41:00;25.27;;;4.73;;
9420;SDS011;4749;51.398;5.466;2023-11-19T03:43:27;33.57;;;5.77;;
9420;SDS011;4749;51.398;5.466;2023-11-19T03:45:55;34.73;;;6.17;;
9420;SDS011;4749;51.398;5.466;2023-11-19T03:48:22;31.80;;;5.20;;
9420;SDS011;4749;51.398;5.466;2023-11-19T03:50:49;32.47;;;5.70;;
9420;SDS011;4749;51.398;5.466;2023-11-19T03:53:17;41.95;;;5.95;;
9420;SDS011;4749;51.398;5.466;2023-11-19T03:55:45;30.10;;;6.72;;
9420;SDS011;4749;51.398;5.466;2023-11-19T03:58:12;36.40;;;5.55;;
9420;SDS011;4749;51.398;5.466;2023-11-19T04:00:39;27.15;;;5.35;;
9420;SDS011;4749;51.398;5.466;2023-11-19T04:03:07;27.48;;;5.38;;
9420;SDS011;4749;51.398;5.466;2023-11-19T04:05:34;32.10;;;5.45;;
9420;SDS011;4749;51.398;5.466;2023-11-19T04:08:01;27.77;;;5.47;;
9420;SDS011;4749;51.398;5.466;2023-11-19T04:10:29;37.78;;;6.18;;
9420;SDS011;4749;51.398;5.466;2023-11-19T04:12:56;33.97;;;6.10;;
9420;SDS011;4749;51.398;5.466;2023-11-19T04:15:23;35.30;;;5.72;;
9420;SDS011;4749;51.398;5.466;2023-11-19T04:17:50;26.10;;;4.75;;
9420;SDS011;4749;51.398;5.466;2023-11-19T04:20:18;29.98;;;5.43;;
9420;SDS011;4749;51.398;5.466;2023-11-19T04:22:45;32.10;;;5.07;;
9420;SDS011;4749;51.398;5.466;2023-11-19T04:25:12;35.90;;;5.95;;
9420;SDS011;4749;51.398;5.466;2023-11-19T04:27:41;32.63;;;6.03;;
9420;SDS011;4749;51.398;5.466;2023-11-19T04:30:08;28.47;;;6.13;;
9420;SDS011;4749;51.398;5.466;2023-11-19T04:32:37;25.08;;;5.13;;
9420;SDS011;4749;51.398;5.466;2023-11-19T04:35:05;30.10;;;5.13;;
9420;SDS011;4749;51.398;5.466;2023-11-19T04:37:33;31.63;;;6.25;;
9420;SDS011;4749;51.398;5.466;2023-11-19T04:40:01;23.83;;;5.13;;
9420;SDS011;4749;51.398;5.466;2023-11-19T04:42:29;31.08;;;5.63;;
9420;SDS011;4749;51.398;5.466;2023-11-19T04:44:58;25.58;;;5.43;;
9420;SDS011;4749;51.398;5.466;2023-11-19T04:47:25;29.33;;;5.50;;
9420;SDS011;4749;51.398;5.466;2023-11-19T04:49:52;26.40;;;5.82;;
9420;SDS011;4749;51.398;5.466;2023-11-19T04:52:19;32.97;;;5.63;;
9420;SDS011;4749;51.398;5.466;2023-11-19T04:54:47;28.17;;;6.57;;
9420;SDS011;4749;51.398;5.466;2023-11-19T04:57:14;31.55;;;5.78;;
9420;SDS011;4749;51.398;5.466;2023-11-19T04:59:41;28.75;;;6.47;;
9420;SDS011;4749;51.398;5.466;2023-11-19T05:02:09;28.83;;;5.63;;
9420;SDS011;4749;51.398;5.466;2023-11-19T05:04:36;34.53;;;5.63;;
9420;SDS011;4749;51.398;5.466;2023-11-19T05:07:07;34.35;;;6.03;;
9420;SDS011;4749;51.398;5.466;2023-11-19T05:09:34;34.47;;;5.00;;
9420;SDS011;4749;51.398;5.466;2023-11-19T05:12:01;31.27;;;5.90;;
9420;SDS011;4749;51.398;5.466;2023-11-19T05:14:29;32.20;;;6.15;;
9420;SDS011;4749;51.398;5.466;2023-11-19T05:16:56;31.35;;;6.35;;
9420;SDS011;4749;51.398;5.466;2023-11-19T05:19:23;34.67;;;6.03;;
9420;SDS011;4749;51.398;5.466;2023-11-19T05:21:50;29.97;;;6.23;;
9420;SDS011;4749;51.398;5.466;2023-11-19T05:24:19;31.53;;;5.93;;
9420;SDS011;4749;51.398;5.466;2023-11-19T05:26:46;33.53;;;5.60;;
9420;SDS011;4749;51.398;5.466;2023-11-19T05:29:13;29.40;;;5.17;;
9420;SDS011;4749;51.398;5.466;2023-11-19T05:31:40;35.60;;;6.20;;
9420;SDS011;4749;51.398;5.466;2023-11-19T05:34:11;36.33;;;6.23;;
9420;SDS011;4749;51.398;5.466;2023-11-19T05:36:38;30.80;;;5.90;;
9420;SDS011;4749;51.398;5.466;2023-11-19T05:39:06;29.40;;;6.07;;
9420;SDS011;4749;51.398;5.466;2023-11-19T05:41:33;30.88;;;4.95;;
9420;SDS011;4749;51.398;5.466;2023-11-19T05:44:00;36.30;;;6.20;;
9420;SDS011;4749;51.398;5.466;2023-11-19T05:46:27;32.87;;;6.57;;
9420;SDS011;4749;51.398;5.466;2023-11-19T05:48:55;34.13;;;5.57;;
9420;SDS011;4749;51.398;5.466;2023-11-19T05:51:22;36.78;;;5.80;;
9420;SDS011;4749;51.398;5.466;2023-11-19T05:53:51;26.55;;;5.35;;
9420;SDS011;4749;51.398;5.466;2023-11-19T05:56:18;30.90;;;5.82;;
9420;SDS011;4749;51.398;5.466;2023-11-19T05:58:48;36.10;;;6.10;;
9420;SDS011;4749;51.398;5.466;2023-11-19T06:01:16;38.03;;;5.97;;
9420;SDS011;4749;51.398;5.466;2023-11-19T06:03:43;35.70;;;5.70;;
9420;SDS011;4749;51.398;5.466;2023-11-19T06:06:16;43.13;;;5.87;;
9420;SDS011;4749;51.398;5.466;2023-11-19T06:08:43;33.10;;;5.07;;
9420;SDS011;4749;51.398;5.466;2023-11-19T06:11:10;29.90;;;5.73;;
9420;SDS011;4749;51.398;5.466;2023-11-19T06:13:45;33.13;;;5.53;;
9420;SDS011;4749;51.398;5.466;2023-11-19T06:16:13;36.67;;;6.40;;
9420;SDS011;4749;51.398;5.466;2023-11-19T06:18:41;27.97;;;5.07;;
9420;SDS011;4749;51.398;5.466;2023-11-19T06:21:10;30.27;;;5.50;;
9420;SDS011;4749;51.398;5.466;2023-11-19T06:23:38;35.40;;;6.23;;
9420;SDS011;4749;51.398;5.466;2023-11-19T06:26:06;42.00;;;7.97;;
9420;SDS011;4749;51.398;5.466;2023-11-19T06:28:33;29.97;;;5.87;;
9420;SDS011;4749;51.398;5.466;2023-11-19T06:31:01;36.30;;;6.10;;
9420;SDS011;4749;51.398;5.466;2023-11-19T06:33:28;34.37;;;5.83;;
9420;SDS011;4749;51.398;5.466;2023-11-19T06:35:55;32.37;;;5.63;;
9420;SDS011;4749;51.398;5.466;2023-11-19T06:38:22;32.30;;;5.53;;
9420;SDS011;4749;51.398;5.466;2023-11-19T06:40:49;33.93;;;5.73;;
9420;SDS011;4749;51.398;5.466;2023-11-19T06:43:20;32.10;;;5.40;;
9420;SDS011;4749;51.398;5.466;2023-11-19T06:45:48;33.03;;;5.70;;
9420;SDS011;4749;51.398;5.466;2023-11-19T06:48:15;31.97;;;5.90;;
9420;SDS011;4749;51.398;5.466;2023-11-19T06:50:42;31.30;;;5.50;;
9420;SDS011;4749;51.398;5.466;2023-11-19T06:53:10;30.10;;;5.17;;
9420;SDS011;4749;51.398;5.466;2023-11-19T06:55:37;34.10;;;6.10;;
9420;SDS011;4749;51.398;5.466;2023-11-19T06:58:05;41.27;;;5.80;;
9420;SDS011;4749;51.398;5.466;2023-11-19T07:00:33;32.53;;;5.17;;
9420;SDS011;4749;51.398;5.466;2023-11-19T07:03:02;32.47;;;6.37;;
9420;SDS011;4749;51.398;5.466;2023-11-19T07:05:30;27.70;;;6.03;;
9420;SDS011;4749;51.398;5.466;2023-11-19T07:07:57;34.20;;;5.70;;
9420;SDS011;4749;51.398;5.466;2023-11-19T07:10:25;37.80;;;5.70;;
9420;SDS011;4749;51.398;5.466;2023-11-19T07:12:52;33.87;;;5.40;;
9420;SDS011;4749;51.398;5.466;2023-11-19T07:15:20;34.90;;;6.23;;
9420;SDS011;4749;51.398;5.466;2023-11-19T07:17:47;37.67;;;5.87;;
9420;SDS011;4749;51.398;5.466;2023-11-19T07:20:26;28.53;;;5.47;;
9420;SDS011;4749;51.398;5.466;2023-11-19T07:22:54;32.03;;;6.07;;
9420;SDS011;4749;51.398;5.466;2023-11-19T07:25:24;31.03;;;4.73;;
9420;SDS011;4749;51.398;5.466;2023-11-19T07:27:51;33.30;;;5.83;;
9420;SDS011;4749;51.398;5.466;2023-11-19T07:30:19;26.07;;;5.20;;
9420;SDS011;4749;51.398;5.466;2023-11-19T07:32:46;39.83;;;5.67;;
9420;SDS011;4749;51.398;5.466;2023-11-19T07:35:15;36.87;;;6.63;;
9420;SDS011;4749;51.398;5.466;2023-11-19T07:37:42;35.30;;;6.10;;
9420;SDS011;4749;51.398;5.466;2023-11-19T07:40:09;34.85;;;5.57;;
9420;SDS011;4749;51.398;5.466;2023-11-19T07:42:38;28.17;;;5.15;;
9420;SDS011;4749;51.398;5.466;2023-11-19T07:45:06;31.42;;;5.82;;
9420;SDS011;4749;51.398;5.466;2023-11-19T07:47:33;34.58;;;5.63;;
9420;SDS011;4749;51.398;5.466;2023-11-19T07:50:01;34.80;;;6.47;;
9420;SDS011;4749;51.398;5.466;2023-11-19T07:52:28;32.35;;;6.13;;
9420;SDS011;4749;51.398;5.466;2023-11-19T07:54:55;36.03;;;6.00;;
9420;SDS011;4749;51.398;5.466;2023-11-19T07:57:22;33.08;;;6.18;;
9420;SDS011;4749;51.398;5.466;2023-11-19T07:59:50;29.92;;;5.72;;
9420;SDS011;4749;51.398;5.466;2023-11-19T08:02:17;43.38;;;6.30;;
9420;SDS011;4749;51.398;5.466;2023-11-19T08:04:45;30.73;;;5.60;;
9420;SDS011;4749;51.398;5.466;2023-11-19T08:07:13;34.55;;;5.90;;
9420;SDS011;4749;51.398;5.466;2023-11-19T08:09:40;32.00;;;5.85;;
9420;SDS011;4749;51.398;5.466;2023-11-19T08:12:08;33.70;;;6.25;;
9420;SDS011;4749;51.398;5.466;2023-11-19T08:14:35;31.48;;;6.03;;
9420;SDS011;4749;51.398;5.466;2023-11-19T08:17:03;33.95;;;5.85;;
9420;SDS011;4749;51.398;5.466;2023-11-19T08:19:30;32.07;;;5.97;;
9420;SDS011;4749;51.398;5.466;2023-11-19T08:21:58;26.90;;;5.57;;
9420;SDS011;4749;51.398;5.466;2023-11-19T08:24:25;30.90;;;5.45;;
9420;SDS011;4749;51.398;5.466;2023-11-19T08:26:52;33.00;;;5.78;;
9420;SDS011;4749;51.398;5.466;2023-11-19T08:29:22;40.75;;;6.28;;
9420;SDS011;4749;51.398;5.466;2023-11-19T08:31:49;33.42;;;6.10;;
9420;SDS011;4749;51.398;5.466;2023-11-19T08:34:16;31.95;;;5.82;;
9420;SDS011;4749;51.398;5.466;2023-11-19T08:36:43;32.85;;;5.72;;
9420;SDS011;4749;51.398;5.466;2023-11-19T08:39:11;25.95;;;5.43;;
9420;SDS011;4749;51.398;5.466;2023-11-19T08:41:40;33.75;;;6.35;;
9420;SDS011;4749;51.398;5.466;2023-11-19T08:44:08;34.97;;;5.20;;
9420;SDS011;4749;51.398;5.466;2023-11-19T08:46:35;35.35;;;6.13;;
9420;SDS011;4749;51.398;5.466;2023-11-19T08:49:02;33.20;;;6.45;;
9420;SDS011;4749;51.398;5.466;2023-11-19T08:51:30;33.17;;;5.97;;
9420;SDS011;4749;51.398;5.466;2023-11-19T08:53:57;31.08;;;5.78;;
9420;SDS011;4749;51.398;5.466;2023-11-19T08:56:25;31.92;;;6.78;;
9420;SDS011;4749;51.398;5.466;2023-11-19T08:58:58;34.00;;;5.82;;
9420;SDS011;4749;51.398;5.466;2023-11-19T09:01:25;33.97;;;6.35;;
9420;SDS011;4749;51.398;5.466;2023-11-19T09:03:52;32.47;;;6.28;;
9420;SDS011;4749;51.398;5.466;2023-11-19T09:06:20;31.33;;;5.10;;
9420;SDS011;4749;51.398;5.466;2023-11-19T09:08:47;34.40;;;6.32;;
9420;SDS011;4749;51.398;5.466;2023-11-19T09:11:14;34.08;;;5.90;;
9420;SDS011;4749;51.398;5.466;2023-11-19T09:13:43;34.28;;;6.93;;
9420;SDS011;4749;51.398;5.466;2023-11-19T09:16:11;33.80;;;5.68;;
9420;SDS011;4749;51.398;5.466;2023-11-19T09:18:39;29.48;;;6.10;;
9420;SDS011;4749;51.398;5.466;2023-11-19T09:21:06;37.67;;;7.28;;
9420;SDS011;4749;51.398;5.466;2023-11-19T09:23:33;28.02;;;5.40;;
9420;SDS011;4749;51.398;5.466;2023-11-19T09:26:05;34.15;;;6.38;;
9420;SDS011;4749;51.398;5.466;2023-11-19T09:28:34;33.58;;;6.53;;
9420;SDS011;4749;51.398;5.466;2023-11-19T09:31:02;32.33;;;6.32;;
9420;SDS011;4749;51.398;5.466;2023-11-19T09:33:32;31.90;;;5.93;;
9420;SDS011;4749;51.398;5.466;2023-11-19T09:36:01;30.33;;;5.55;;
9420;SDS011;4749;51.398;5.466;2023-11-19T09:38:28;35.05;;;5.80;;
9420;SDS011;4749;51.398;5.466;2023-11-19T09:40:55;32.30;;;6.03;;
9420;SDS011;4749;51.398;5.466;2023-11-19T09:43:24;28.92;;;6.00;;
9420;SDS011;4749;51.398;5.466;2023-11-19T09:45:54;31.58;;;5.13;;
9420;SDS011;4749;51.398;5.466;2023-11-19T09:48:22;25.52;;;5.18;;
9420;SDS011;4749;51.398;5.466;2023-11-19T09:50:52;28.70;;;5.38;;
9420;SDS011;4749;51.398;5.466;2023-11-19T09:53:20;31.25;;;5.90;;
9420;SDS011;4749;51.398;5.466;2023-11-19T09:55:47;24.83;;;4.97;;
9420;SDS011;4749;51.398;5.466;2023-11-19T09:58:15;26.40;;;5.43;;
9420;SDS011;4749;51.398;5.466;2023-11-19T10:00:43;28.02;;;6.22;;
9420;SDS011;4749;51.398;5.466;2023-11-19T10:03:20;26.50;;;5.43;;
9420;SDS011;4749;51.398;5.466;2023-11-19T10:05:50;24.27;;;5.15;;
9420;SDS011;4749;51.398;5.466;2023-11-19T10:08:17;27.50;;;6.28;;
9420;SDS011;4749;51.398;5.466;2023-11-19T10:10:44;28.17;;;5.38;;
9420;SDS011;4749;51.398;5.466;2023-11-19T10:13:11;28.67;;;6.30;;
9420;SDS011;4749;51.398;5.466;2023-11-19T10:15:42;29.60;;;6.20;;
9420;SDS011;4749;51.398;5.466;2023-11-19T10:18:10;27.08;;;5.22;;
9420;SDS011;4749;51.398;5.466;2023-11-19T10:20:40;25.13;;;5.05;;
9420;SDS011;4749;51.398;5.466;2023-11-19T10:23:08;26.77;;;4.90;;
9420;SDS011;4749;51.398;5.466;2023-11-19T10:25:36;27.45;;;6.30;;
9420;SDS011;4749;51.398;5.466;2023-11-19T10:28:04;22.02;;;4.95;;
9420;SDS011;4749;51.398;5.466;2023-11-19T10:30:31;25.23;;;5.97;;
9420;SDS011;4749;51.398;5.466;2023-11-19T10:35:50;34.53;;;5.53;;
9420;SDS011;4749;51.398;5.466;2023-11-19T10:38:23;23.38;;;4.82;;
9420;SDS011;4749;51.398;5.466;2023-11-19T10:40:52;24.30;;;4.78;;
9420;SDS011;4749;51.398;5.466;2023-11-19T10:43:21;20.08;;;4.53;;
9420;SDS011;4749;51.398;5.466;2023-11-19T10:45:49;26.08;;;4.78;;
9420;SDS011;4749;51.398;5.466;2023-11-19T10:48:17;33.83;;;5.10;;
9420;SDS011;4749;51.398;5.466;2023-11-19T10:50:46;24.52;;;4.88;;
9420;SDS011;4749;51.398;5.466;2023-11-19T10:53:23;23.35;;;4.68;;
9420;SDS011;4749;51.398;5.466;2023-11-19T10:55:53;24.23;;;5.28;;
9420;SDS011;4749;51.398;5.466;2023-11-19T10:58:24;27.40;;;4.88;;
9420;SDS011;4749;51.398;5.466;2023-11-19T11:00:55;22.33;;;5.38;;
9420;SDS011;4749;51.398;5.466;2023-11-19T11:03:29;19.60;;;4.55;;
9420;SDS011;4749;51.398;5.466;2023-11-19T11:06:06;25.00;;;4.65;;
9420;SDS011;4749;51.398;5.466;2023-11-19T11:08:36;25.05;;;4.93;;
9420;SDS011;4749;51.398;5.466;2023-11-19T11:11:05;23.35;;;4.55;;
9420;SDS011;4749;51.398;5.466;2023-11-19T11:13:36;24.27;;;5.05;;
9420;SDS011;4749;51.398;5.466;2023-11-19T11:16:08;24.25;;;4.47;;
9420;SDS011;4749;51.398;5.466;2023-11-19T11:18:36;27.52;;;5.20;;
9420;SDS011;4749;51.398;5.466;2023-11-19T11:21:05;24.30;;;5.53;;
9420;SDS011;4749;51.398;5.466;2023-11-19T11:23:56;25.67;;;4.72;;
9420;SDS011;4749;51.398;5.466;2023-11-19T11:35:53;17.88;;;3.17;;
9420;SDS011;4749;51.398;5.466;2023-11-19T11:38:28;22.25;;;4.60;;
9420;SDS011;4749;51.398;5.466;2023-11-19T11:43:58;22.92;;;4.75;;
9420;SDS011;4749;51.398;5.466;2023-11-19T11:49:02;22.50;;;4.28;;
9420;SDS011;4749;51.398;5.466;2023-11-19T11:54:25;25.50;;;4.45;;
9420;SDS011;4749;51.398;5.466;2023-11-19T11:57:06;26.17;;;4.93;;
9420;SDS011;4749;51.398;5.466;2023-11-19T12:02:10;19.30;;;3.85;;
9420;SDS011;4749;51.398;5.466;2023-11-19T12:04:39;25.98;;;5.13;;
9420;SDS011;4749;51.398;5.466;2023-11-19T12:07:15;25.83;;;4.47;;
9420;SDS011;4749;51.398;5.466;2023-11-19T12:09:52;26.35;;;5.40;;
9420;SDS011;4749;51.398;5.466;2023-11-19T12:12:34;25.05;;;4.53;;
9420;SDS011;4749;51.398;5.466;2023-11-19T12:15:05;22.80;;;4.43;;
9420;SDS011;4749;51.398;5.466;2023-11-19T12:17:37;25.98;;;4.60;;
9420;SDS011;4749;51.398;5.466;2023-11-19T12:20:11;23.30;;;4.20;;
9420;SDS011;4749;51.398;5.466;2023-11-19T12:22:39;22.90;;;5.13;;
9420;SDS011;4749;51.398;5.466;2023-11-19T12:25:09;20.50;;;4.88;;
9420;SDS011;4749;51.398;5.466;2023-11-19T12:27:41;17.60;;;4.25;;
9420;SDS011;4749;51.398;5.466;2023-11-19T12:30:22;21.88;;;4.43;;
9420;SDS011;4749;51.398;5.466;2023-11-19T12:32:52;25.75;;;4.30;;
9420;SDS011;4749;51.398;5.466;2023-11-19T12:35:21;17.73;;;3.78;;
9420;SDS011;4749;51.398;5.466;2023-11-19T12:37:49;18.63;;;4.18;;
9420;SDS011;4749;51.398;5.466;2023-11-19T12:42:47;23.70;;;4.38;;
9420;SDS011;4749;51.398;5.466;2023-11-19T12:45:20;21.55;;;4.57;;
9420;SDS011;4749;51.398;5.466;2023-11-19T12:47:57;22.15;;;3.78;;
9420;SDS011;4749;51.398;5.466;2023-11-19T12:50:55;26.90;;;4.97;;
9420;SDS011;4749;51.398;5.466;2023-11-19T12:53:25;20.85;;;4.30;;
9420;SDS011;4749;51.398;5.466;2023-11-19T12:55:53;23.10;;;4.38;;
9420;SDS011;4749;51.398;5.466;2023-11-19T12:58:34;24.60;;;4.60;;
9420;SDS011;4749;51.398;5.466;2023-11-19T13:01:03;22.50;;;4.85;;
9420;SDS011;4749;51.398;5.466;2023-11-19T13:03:34;25.73;;;4.15;;
9420;SDS011;4749;51.398;5.466;2023-11-19T13:06:04;25.48;;;4.85;;
9420;SDS011;4749;51.398;5.466;2023-11-19T13:11:31;25.98;;;5.53;;
9420;SDS011;4749;51.398;5.466;2023-11-19T13:14:03;22.98;;;4.80;;
9420;SDS011;4749;51.398;5.466;2023-11-19T13:16:32;19.10;;;4.45;;
9420;SDS011;4749;51.398;5.466;2023-11-19T13:19:00;23.13;;;4.53;;
9420;SDS011;4749;51.398;5.466;2023-11-19T13:21:27;24.30;;;4.15;;
9420;SDS011;4749;51.398;5.466;2023-11-19T13:23:56;21.98;;;4.40;;
9420;SDS011;4749;51.398;5.466;2023-11-19T13:26:24;19.63;;;3.80;;
9420;SDS011;4749;51.398;5.466;2023-11-19T13:28:51;21.05;;;3.72;;
9420;SDS011;4749;51.398;5.466;2023-11-19T13:31:19;17.85;;;3.85;;
9420;SDS011;4749;51.398;5.466;2023-11-19T13:33:46;24.55;;;4.55;;
9420;SDS011;4749;51.398;5.466;2023-11-19T13:36:13;19.65;;;3.95;;
9420;SDS011;4749;51.398;5.466;2023-11-19T13:38:43;18.65;;;4.45;;
9420;SDS011;4749;51.398;5.466;2023-11-19T13:41:11;21.58;;;3.97;;
9420;SDS011;4749;51.398;5.466;2023-11-19T13:43:40;18.52;;;4.18;;
9420;SDS011;4749;51.398;5.466;2023-11-19T13:46:07;18.00;;;3.38;;
9420;SDS011;4749;51.398;5.466;2023-11-19T13:48:39;21.63;;;4.00;;
9420;SDS011;4749;51.398;5.466;2023-11-19T13:51:06;23.52;;;4.35;;
9420;SDS011;4749;51.398;5.466;2023-11-19T13:53:33;19.55;;;4.43;;
9420;SDS011;4749;51.398;5.466;2023-11-19T13:56:03;23.52;;;4.78;;
9420;SDS011;4749;51.398;5.466;2023-11-19T13:58:32;18.80;;;4.38;;
9420;SDS011;4749;51.398;5.466;2023-11-19T14:00:59;19.83;;;3.75;;
9420;SDS011;4749;51.398;5.466;2023-11-19T14:03:26;19.65;;;4.85;;
9420;SDS011;4749;51.398;5.466;2023-11-19T14:05:53;18.17;;;4.63;;
9420;SDS011;4749;51.398;5.466;2023-11-19T14:08:21;21.35;;;4.95;;
9420;SDS011;4749;51.398;5.466;2023-11-19T14:10:52;20.75;;;4.05;;
9420;SDS011;4749;51.398;5.466;2023-11-19T14:13:22;23.73;;;4.38;;
9420;SDS011;4749;51.398;5.466;2023-11-19T14:15:50;20.58;;;4.40;;
9420;SDS011;4749;51.398;5.466;2023-11-19T14:18:18;15.13;;;3.67;;
9420;SDS011;4749;51.398;5.466;2023-11-19T14:20:45;18.20;;;4.28;;
9420;SDS011;4749;51.398;5.466;2023-11-19T14:23:12;26.63;;;5.07;;
9420;SDS011;4749;51.398;5.466;2023-11-19T14:25:40;17.58;;;3.65;;
9420;SDS011;4749;51.398;5.466;2023-11-19T14:28:07;18.98;;;4.30;;
9420;SDS011;4749;51.398;5.466;2023-11-19T14:30:34;19.15;;;4.15;;
9420;SDS011;4749;51.398;5.466;2023-11-19T14:33:02;20.05;;;4.07;;
9420;SDS011;4749;51.398;5.466;2023-11-19T14:35:32;17.38;;;3.78;;
9420;SDS011;4749;51.398;5.466;2023-11-19T14:38:00;20.98;;;4.50;;
9420;SDS011;4749;51.398;5.466;2023-11-19T14:40:31;17.20;;;3.60;;
9420;SDS011;4749;51.398;5.466;2023-11-19T14:43:01;18.42;;;3.33;;
9420;SDS011;4749;51.398;5.466;2023-11-19T14:45:29;27.13;;;4.22;;
9420;SDS011;4749;51.398;5.466;2023-11-19T14:48:07;20.48;;;4.18;;
9420;SDS011;4749;51.398;5.466;2023-11-19T14:50:34;24.45;;;4.68;;
9420;SDS011;4749;51.398;5.466;2023-11-19T14:53:01;20.05;;;3.75;;
9420;SDS011;4749;51.398;5.466;2023-11-19T14:55:29;23.58;;;5.00;;
9420;SDS011;4749;51.398;5.466;2023-11-19T14:57:57;26.08;;;4.38;;
9420;SDS011;4749;51.398;5.466;2023-11-19T15:00:34;22.20;;;4.28;;
9420;SDS011;4749;51.398;5.466;2023-11-19T15:03:01;23.38;;;5.22;;
9420;SDS011;4749;51.398;5.466;2023-11-19T15:05:29;22.55;;;5.45;;
9420;SDS011;4749;51.398;5.466;2023-11-19T15:07:56;29.05;;;4.85;;
9420;SDS011;4749;51.398;5.466;2023-11-19T15:10:23;18.92;;;4.88;;
9420;SDS011;4749;51.398;5.466;2023-11-19T15:12:52;29.08;;;4.70;;
9420;SDS011;4749;51.398;5.466;2023-11-19T15:15:21;24.52;;;4.45;;
9420;SDS011;4749;51.398;5.466;2023-11-19T15:17:51;29.20;;;4.97;;
9420;SDS011;4749;51.398;5.466;2023-11-19T15:20:19;24.08;;;5.72;;
9420;SDS011;4749;51.398;5.466;2023-11-19T15:22:47;23.80;;;5.05;;
9420;SDS011;4749;51.398;5.466;2023-11-19T15:25:14;26.23;;;5.13;;
9420;SDS011;4749;51.398;5.466;2023-11-19T15:27:41;21.92;;;4.75;;
9420;SDS011;4749;51.398;5.466;2023-11-19T15:30:09;22.52;;;4.85;;
9420;SDS011;4749;51.398;5.466;2023-11-19T15:32:37;22.35;;;4.00;;
9420;SDS011;4749;51.398;5.466;2023-11-19T15:35:05;23.75;;;4.07;;
9420;SDS011;4749;51.398;5.466;2023-11-19T15:37:34;24.02;;;4.38;;
9420;SDS011;4749;51.398;5.466;2023-11-19T15:40:02;25.08;;;4.28;;